Time;durP1;ratioP1;P1;durP2;ratioP2;P2;SDS_P1;SDS_P2;PMS_P1;PMS_P2;Temp;Humidity;BMP_temperature;BMP_pressure;BME280_temperature;BME280_humidity;BME280_pressure;Samples;Min_cycle;Max_cycle;Signal;HPM_P1;HPM_P2
2022/03/08 02:24:32;;;;;;;;;;;-0.30;94.90;;;;;;5008701;28;20000;-80
2022/03/08 02:27:00;;;;;;;;;;;-0.30;94.80;;;;;;5030835;28;19956;-81
2022/03/08 02:29:28;;;;;;;;;;;-0.30;94.90;;;;;;5031096;28;19925;-81
2022/03/08 02:31:55;;;;;;;;;;;-0.40;94.90;;;;;;5015261;28;20397;-81
2022/03/08 02:34:23;;;;;;;;;;;-0.30;94.80;;;;;;5007902;28;19925;-81
2022/03/08 02:36:56;;;;;;;;;;;-0.30;94.80;;;;;;5011188;28;19987;-81
2022/03/08 02:39:52;;;;;;;;;;;-0.40;94.70;;;;;;5008504;28;19995;-81
2022/03/08 02:42:20;;;;;;;;;;;-0.40;94.70;;;;;;5012742;28;19933;-81
2022/03/08 02:44:47;;;;;;;;;;;-0.40;94.80;;;;;;5012811;28;19948;-81
2022/03/08 02:47:14;;;;;;;;;;;-0.40;94.70;;;;;;5029373;28;20025;-81
2022/03/08 02:49:41;;;;;;;;;;;-0.40;94.50;;;;;;5007243;28;19949;-81
2022/03/08 02:52:08;;;;;;;;;;;-0.40;94.50;;;;;;5008563;28;19948;-81
2022/03/08 02:54:37;;;;;;;;;;;-0.40;94.70;;;;;;5024307;28;20012;-81
2022/03/08 02:57:04;;;;;;;;;;;-0.40;94.70;;;;;;5028812;28;19995;-81
2022/03/08 02:59:33;;;;;;;;;;;-0.40;94.80;;;;;;5013011;28;19929;-80
2022/03/08 03:02:02;;;;;;;;;;;-0.50;94.60;;;;;;5021358;28;20308;-80
2022/03/08 03:04:30;;;;;;;;;;;-0.50;94.60;;;;;;5024469;28;19929;-80
2022/03/08 03:06:57;;;;;;;;;;;-0.50;94.60;;;;;;5012670;28;19929;-81
2022/03/08 03:09:24;;;;;;;;;;;-0.50;94.70;;;;;;5020606;28;19931;-81
2022/03/08 03:11:52;;;;;;;;;;;-0.50;94.70;;;;;;5018185;28;19925;-81
2022/03/08 03:14:19;;;;;;;;;;;-0.50;94.60;;;;;;5020001;28;19952;-80
2022/03/08 03:16:48;;;;;;;;;;;-0.50;94.60;;;;;;5014240;28;21773;-81
2022/03/08 03:19:15;;;;;;;;;;;-0.50;94.70;;;;;;5016422;28;19926;-81
2022/03/08 03:21:42;;;;;;;;;;;-0.50;94.60;;;;;;5012911;28;19961;-80
2022/03/08 03:24:09;;;;;;;;;;;-0.60;94.50;;;;;;5024289;28;19940;-81
2022/03/08 03:26:36;;;;;;;;;;;-0.50;94.50;;;;;;5002196;28;19933;-80
2022/03/08 03:29:03;;;;;;;;;;;-0.60;94.60;;;;;;5010345;28;19991;-81
2022/03/08 03:31:30;;;;;;;;;;;-0.60;94.40;;;;;;5008821;28;20000;-81
2022/03/08 03:33:59;;;;;;;;;;;-0.60;94.60;;;;;;5030519;28;19933;-80
2022/03/08 03:36:28;;;;;;;;;;;-0.60;94.60;;;;;;5027928;28;19936;-81
2022/03/08 03:38:55;;;;;;;;;;;-0.60;94.50;;;;;;5010190;28;20024;-81
2022/03/08 03:41:22;;;;;;;;;;;-0.60;94.40;;;;;;5022498;28;19996;-81
2022/03/08 03:43:49;;;;;;;;;;;-0.60;94.60;;;;;;5029567;28;19933;-81
2022/03/08 03:46:18;;;;;;;;;;;-0.60;94.60;;;;;;5024195;28;19929;-81
2022/03/08 03:48:45;;;;;;;;;;;-0.70;94.60;;;;;;5022153;28;20011;-81
2022/03/08 03:51:16;;;;;;;;;;;-0.60;94.50;;;;;;5022109;28;19925;-81
2022/03/08 03:53:43;;;;;;;;;;;-0.70;94.50;;;;;;5017808;28;20009;-80
2022/03/08 03:56:10;;;;;;;;;;;-0.60;94.60;;;;;;5009056;28;19924;-82
2022/03/08 03:58:39;;;;;;;;;;;-0.70;94.50;;;;;;5004097;28;19934;-81
2022/03/08 04:01:06;;;;;;;;;;;-0.70;94.50;;;;;;5011819;28;19933;-81
2022/03/08 04:03:33;;;;;;;;;;;-0.70;94.50;;;;;;5026474;28;19926;-81
2022/03/08 04:06:00;;;;;;;;;;;-0.70;94.50;;;;;;5028148;28;19935;-81
2022/03/08 04:08:29;;;;;;;;;;;-0.70;94.50;;;;;;5031729;28;20347;-81
2022/03/08 04:10:56;;;;;;;;;;;-0.70;94.50;;;;;;5012036;28;19933;-81
2022/03/08 04:13:23;;;;;;;;;;;-0.70;94.30;;;;;;5008535;28;19968;-81
2022/03/08 04:15:50;;;;;;;;;;;-0.80;94.40;;;;;;5019080;28;20412;-80
2022/03/08 04:18:17;;;;;;;;;;;-0.80;94.30;;;;;;5021037;28;21637;-81
2022/03/08 04:20:44;;;;;;;;;;;-0.80;94.30;;;;;;5020132;28;19932;-81
2022/03/08 04:23:11;;;;;;;;;;;-0.80;94.30;;;;;;5005161;28;20574;-80
2022/03/08 04:25:40;;;;;;;;;;;-0.70;94.30;;;;;;5026937;28;19929;-81
2022/03/08 04:28:07;;;;;;;;;;;-0.80;94.40;;;;;;5010804;28;19933;-80
2022/03/08 04:30:35;;;;;;;;;;;-0.80;94.40;;;;;;5027804;28;19944;-80
2022/03/08 04:33:02;;;;;;;;;;;-0.80;94.30;;;;;;5021531;28;19929;-81
2022/03/08 04:35:29;;;;;;;;;;;-0.90;94.60;;;;;;5045770;28;19916;-80
2022/03/08 04:37:56;;;;;;;;;;;-0.90;94.40;;;;;;5034481;28;19930;-80
2022/03/08 04:40:23;;;;;;;;;;;-0.90;94.40;;;;;;5041229;28;19979;-80
2022/03/08 04:42:53;;;;;;;;;;;-0.90;94.40;;;;;;5017974;28;19917;-80
2022/03/08 04:45:20;;;;;;;;;;;-0.90;94.40;;;;;;5040073;28;19956;-81
2022/03/08 04:47:47;;;;;;;;;;;-0.90;94.40;;;;;;5041271;28;19932;-80
2022/03/08 04:50:16;;;;;;;;;;;-0.90;94.40;;;;;;5036968;28;19932;-80
2022/03/08 04:52:45;;;;;;;;;;;-0.90;94.40;;;;;;5016280;28;19929;-81
2022/03/08 04:55:13;;;;;;;;;;;-1.00;94.40;;;;;;5016893;28;19969;-80
2022/03/08 04:57:40;;;;;;;;;;;-1.00;94.40;;;;;;5039469;28;19925;-80
2022/03/08 05:00:11;;;;;;;;;;;-1.00;94.40;;;;;;5041824;28;19932;-80
2022/03/08 05:02:39;;;;;;;;;;;-1.00;94.40;;;;;;5037061;28;19948;-80
2022/03/08 05:05:06;;;;;;;;;;;-1.00;94.40;;;;;;5019844;28;19932;-81
2022/03/08 05:07:33;;;;;;;;;;;-1.00;94.50;;;;;;5018396;28;20388;-80
2022/03/08 05:10:00;;;;;;;;;;;-1.00;94.30;;;;;;5025345;28;19926;-81
2022/03/08 05:12:27;;;;;;;;;;;-1.00;94.30;;;;;;5016418;28;19952;-80
2022/03/08 05:14:56;;;;;;;;;;;-0.90;94.50;;;;;;5018797;28;20474;-81
2022/03/08 05:17:25;;;;;;;;;;;-1.00;94.40;;;;;;5018662;28;19925;-80
2022/03/08 05:19:53;;;;;;;;;;;-1.10;94.30;;;;;;5028135;28;19981;-81
2022/03/08 05:22:20;;;;;;;;;;;-1.00;94.30;;;;;;5019100;28;19926;-80
2022/03/08 05:24:48;;;;;;;;;;;-1.00;94.30;;;;;;5026392;28;19929;-80
2022/03/08 05:27:15;;;;;;;;;;;-1.10;94.30;;;;;;5013834;28;19948;-80
2022/03/08 05:29:42;;;;;;;;;;;-1.10;94.30;;;;;;5011834;28;20349;-80
2022/03/08 05:32:24;;;;;;;;;;;-1.10;94.30;;;;;;5023281;28;19926;-80
2022/03/08 05:34:53;;;;;;;;;;;-1.10;94.20;;;;;;5034169;28;19932;-79
2022/03/08 05:37:20;;;;;;;;;;;-1.10;94.40;;;;;;5029659;28;19929;-81
2022/03/08 05:39:47;;;;;;;;;;;-1.10;94.40;;;;;;5042970;28;19924;-80
2022/03/08 05:42:14;;;;;;;;;;;-1.10;94.40;;;;;;5018283;28;19948;-80
2022/03/08 05:44:42;;;;;;;;;;;-1.10;94.40;;;;;;5025572;28;19925;-80
2022/03/08 05:47:09;;;;;;;;;;;-1.20;94.30;;;;;;5024666;28;20528;-80
2022/03/08 05:49:36;;;;;;;;;;;-1.10;94.30;;;;;;5020411;28;19936;-80
2022/03/08 05:52:05;;;;;;;;;;;-1.10;94.40;;;;;;5029431;28;19963;-79
2022/03/08 05:54:32;;;;;;;;;;;-1.20;94.30;;;;;;5025319;28;19932;-78
2022/03/08 05:56:59;;;;;;;;;;;-1.20;94.40;;;;;;5020027;28;19932;-80
2022/03/08 05:59:26;;;;;;;;;;;-1.20;94.40;;;;;;5026225;28;19932;-80
2022/03/08 06:01:53;;;;;;;;;;;-1.30;94.30;;;;;;5009553;28;20004;-80
2022/03/08 06:04:25;;;;;;;;;;;-1.30;94.40;;;;;;5009599;28;19925;-81
2022/03/08 06:06:54;;;;;;;;;;;-1.30;94.50;;;;;;5027150;28;19929;-80
2022/03/08 06:09:23;;;;;;;;;;;-1.30;94.30;;;;;;5026845;28;19971;-80
2022/03/08 06:11:51;;;;;;;;;;;-1.40;94.30;;;;;;5024517;28;19933;-80
2022/03/08 06:14:18;;;;;;;;;;;-1.40;94.30;;;;;;5033249;28;19932;-80
2022/03/08 06:16:47;;;;;;;;;;;-1.40;94.50;;;;;;5032808;28;19948;-80
2022/03/08 06:19:14;;;;;;;;;;;-1.40;94.20;;;;;;5018995;28;19929;-81
2022/03/08 06:21:41;;;;;;;;;;;-1.50;94.30;;;;;;5009188;28;19988;-79
2022/03/08 06:24:08;;;;;;;;;;;-1.40;94.60;;;;;;5008157;28;19991;-80
2022/03/08 06:26:36;;;;;;;;;;;-1.40;94.50;;;;;;5002962;28;20271;-80
2022/03/08 06:29:03;;;;;;;;;;;-1.40;94.40;;;;;;5010649;28;19933;-80
2022/03/08 06:31:30;;;;;;;;;;;-1.40;94.40;;;;;;5020678;28;19924;-81
2022/03/08 06:33:57;;;;;;;;;;;-1.40;94.40;;;;;;5002584;28;20381;-79
2022/03/08 06:36:24;;;;;;;;;;;-1.50;94.40;;;;;;5005589;28;19932;-80
2022/03/08 06:38:50;;;;;;;;;;;-1.50;94.40;;;;;;5019134;28;19926;-80
2022/03/08 06:41:17;;;;;;;;;;;-1.50;94.60;;;;;;5010021;28;20387;-80
2022/03/08 06:43:46;;;;;;;;;;;-1.50;94.50;;;;;;5020798;28;19929;-80
2022/03/08 06:46:13;;;;;;;;;;;-1.50;94.70;;;;;;5025273;28;19925;-80
2022/03/08 06:48:40;;;;;;;;;;;-1.50;94.50;;;;;;5016795;28;19925;-79
2022/03/08 06:51:07;;;;;;;;;;;-1.50;94.40;;;;;;5031801;28;19929;-80
2022/03/08 06:53:34;;;;;;;;;;;-1.50;94.40;;;;;;5033915;28;19987;-80
2022/03/08 06:56:01;;;;;;;;;;;-1.50;94.40;;;;;;5032548;28;19957;-80
2022/03/08 06:58:29;;;;;;;;;;;-1.40;94.40;;;;;;5032266;28;19926;-81
2022/03/08 07:00:57;;;;;;;;;;;-1.50;94.40;;;;;;5028024;28;19940;-81
2022/03/08 07:03:24;;;;;;;;;;;-1.50;94.30;;;;;;5027035;28;19933;-80
2022/03/08 07:05:51;;;;;;;;;;;-1.50;94.30;;;;;;5029914;28;19925;-80
2022/03/08 07:08:18;;;;;;;;;;;-1.50;94.40;;;;;;5017917;28;20404;-81
2022/03/08 07:10:46;;;;;;;;;;;-1.50;94.40;;;;;;5011878;28;19935;-80
2022/03/08 07:13:13;;;;;;;;;;;-1.60;94.30;;;;;;5028293;28;19984;-80
2022/03/08 07:15:40;;;;;;;;;;;-1.60;94.30;;;;;;5032058;28;19948;-80
2022/03/08 07:18:08;;;;;;;;;;;-1.60;94.30;;;;;;5022296;28;19925;-80
2022/03/08 07:20:35;;;;;;;;;;;-1.60;94.30;;;;;;5022512;28;19961;-81
2022/03/08 07:23:02;;;;;;;;;;;-1.60;94.40;;;;;;5031749;28;19960;-81
2022/03/08 07:25:30;;;;;;;;;;;-1.60;94.30;;;;;;5029789;28;19940;-81
2022/03/08 07:27:57;;;;;;;;;;;-1.60;94.40;;;;;;5019863;28;20376;-82
2022/03/08 07:30:24;;;;;;;;;;;-1.50;94.50;;;;;;5055751;28;20407;-80
2022/03/08 07:32:51;;;;;;;;;;;-1.60;94.30;;;;;;5072199;23;19928;-79
2022/03/08 07:35:19;;;;;;;;;;;-1.50;94.40;;;;;;5023521;28;19925;-79
2022/03/08 07:37:46;;;;;;;;;;;-1.60;94.50;;;;;;5024923;28;19971;-79
2022/03/08 07:40:13;;;;;;;;;;;-1.60;94.60;;;;;;5026882;28;19933;-79
2022/03/08 07:42:40;;;;;;;;;;;-1.60;94.50;;;;;;5021807;28;19925;-79
2022/03/08 07:45:07;;;;;;;;;;;-1.60;94.50;;;;;;4996914;28;19949;-79
2022/03/08 07:47:34;;;;;;;;;;;-1.60;94.50;;;;;;5003592;28;20401;-79
2022/03/08 07:50:01;;;;;;;;;;;-1.60;94.50;;;;;;4997263;28;19968;-79
2022/03/08 07:52:30;;;;;;;;;;;-1.60;94.50;;;;;;4999914;28;19959;-79
2022/03/08 07:54:57;;;;;;;;;;;-1.60;94.50;;;;;;4979802;28;20389;-80
2022/03/08 07:57:24;;;;;;;;;;;-1.50;94.50;;;;;;5003519;28;19932;-79
2022/03/08 07:59:51;;;;;;;;;;;-1.50;94.80;;;;;;4981047;28;19926;-79
2022/03/08 08:02:17;;;;;;;;;;;-1.50;94.60;;;;;;5001003;28;19925;-79
2022/03/08 08:04:44;;;;;;;;;;;-1.50;94.60;;;;;;4990031;28;19926;-79
2022/03/08 08:07:11;;;;;;;;;;;-1.40;94.60;;;;;;4999931;28;20175;-79
2022/03/08 08:09:40;;;;;;;;;;;-1.40;94.60;;;;;;4996824;28;19933;-79
2022/03/08 08:12:08;;;;;;;;;;;-1.40;94.60;;;;;;5001210;28;19940;-79
2022/03/08 08:14:35;;;;;;;;;;;-1.40;94.70;;;;;;4989147;28;19929;-79
2022/03/08 08:17:01;;;;;;;;;;;-1.40;94.70;;;;;;4995890;28;19932;-79
2022/03/08 08:19:28;;;;;;;;;;;-1.30;94.70;;;;;;4998930;28;19932;-80
2022/03/08 08:21:55;;;;;;;;;;;-1.30;94.70;;;;;;5002692;28;19934;-79
2022/03/08 08:24:22;;;;;;;;;;;-1.30;94.70;;;;;;5007246;28;19976;-79
2022/03/08 08:26:51;;;;;;;;;;;-1.30;94.80;;;;;;4991357;28;19929;-79
2022/03/08 08:29:18;;;;;;;;;;;-1.30;94.70;;;;;;4999930;28;21409;-79
2022/03/08 08:31:45;;;;;;;;;;;-1.30;94.90;;;;;;5009806;28;20313;-79
2022/03/08 08:34:12;;;;;;;;;;;-1.30;95.00;;;;;;4984929;28;19933;-79
2022/03/08 08:36:39;;;;;;;;;;;-1.30;94.90;;;;;;4988095;28;20317;-79
2022/03/08 08:39:06;;;;;;;;;;;-1.30;95.00;;;;;;5001719;28;19933;-79
2022/03/08 08:41:33;;;;;;;;;;;-1.30;95.10;;;;;;5006135;28;19991;-79
2022/03/08 08:44:01;;;;;;;;;;;-1.30;95.20;;;;;;4986623;28;19932;-79
2022/03/08 08:46:28;;;;;;;;;;;-1.30;95.20;;;;;;5006791;28;20389;-79
2022/03/08 08:48:55;;;;;;;;;;;-1.30;95.30;;;;;;5006017;28;19926;-79
2022/03/08 08:51:22;;;;;;;;;;;-1.30;95.40;;;;;;5004446;28;20456;-79
2022/03/08 08:53:49;;;;;;;;;;;-1.30;95.40;;;;;;4989543;28;19925;-79
2022/03/08 08:56:15;;;;;;;;;;;-1.30;95.40;;;;;;4990150;28;19925;-79
2022/03/08 08:58:42;;;;;;;;;;;-1.20;95.60;;;;;;5002465;28;19934;-79
2022/03/08 09:01:11;;;;;;;;;;;-1.30;95.60;;;;;;4977769;28;19926;-79
2022/03/08 09:03:38;;;;;;;;;;;-1.20;95.70;;;;;;4987559;28;19976;-79
2022/03/08 09:06:05;;;;;;;;;;;-1.30;95.60;;;;;;4986478;28;20371;-79
2022/03/08 09:08:31;;;;;;;;;;;-1.20;95.70;;;;;;4999162;28;19930;-79
2022/03/08 09:10:59;;;;;;;;;;;-1.20;95.70;;;;;;5006898;28;19952;-79
2022/03/08 09:13:26;;;;;;;;;;;-1.20;95.70;;;;;;5006073;28;20388;-79
2022/03/08 09:15:53;;;;;;;;;;;-1.20;95.80;;;;;;4987538;28;19933;-80
2022/03/08 09:18:21;;;;;;;;;;;-1.20;95.90;;;;;;5012067;28;19971;-79
2022/03/08 09:20:48;;;;;;;;;;;-1.10;96.00;;;;;;4989032;28;19968;-80
2022/03/08 09:23:15;;;;;;;;;;;-1.10;96.00;;;;;;5001809;28;19938;-80
2022/03/08 09:25:42;;;;;;;;;;;-1.20;96.10;;;;;;5004368;28;19948;-80
2022/03/08 09:28:09;;;;;;;;;;;-1.10;96.10;;;;;;4988041;28;20394;-79
2022/03/08 09:30:36;;;;;;;;;;;-1.10;96.30;;;;;;4988656;28;19926;-80
2022/03/08 09:33:03;;;;;;;;;;;-1.10;96.40;;;;;;5001766;28;20411;-79
2022/03/08 09:35:32;;;;;;;;;;;-1.10;96.40;;;;;;4985299;28;19933;-79
2022/03/08 09:37:59;;;;;;;;;;;-1.00;96.40;;;;;;5004919;28;20024;-80
2022/03/08 09:40:25;;;;;;;;;;;-1.00;96.40;;;;;;5005281;28;20421;-80
2022/03/08 09:42:52;;;;;;;;;;;-1.00;96.40;;;;;;5004956;28;20392;-79
2022/03/08 09:45:19;;;;;;;;;;;-0.90;96.40;;;;;;5002741;28;19933;-79
2022/03/08 09:47:46;;;;;;;;;;;-0.90;96.30;;;;;;4986653;28;20278;-80
2022/03/08 09:50:14;;;;;;;;;;;-0.90;96.40;;;;;;5010261;28;19926;-80
2022/03/08 09:52:43;;;;;;;;;;;-0.80;96.40;;;;;;4984588;28;19926;-79
2022/03/08 09:55:11;;;;;;;;;;;-0.80;96.20;;;;;;4998404;28;19925;-79
2022/03/08 09:57:38;;;;;;;;;;;-0.80;96.20;;;;;;4990150;28;19932;-79
2022/03/08 10:00:05;;;;;;;;;;;-0.80;96.10;;;;;;5005830;28;19935;-80
2022/03/08 10:02:43;;;;;;;;;;;-0.80;96.00;;;;;;5008219;28;19940;-79
2022/03/08 10:05:10;;;;;;;;;;;-0.70;96.00;;;;;;4985439;28;19926;-79
2022/03/08 10:07:37;;;;;;;;;;;-0.70;96.00;;;;;;5002317;28;19933;-79
2022/03/08 10:10:06;;;;;;;;;;;-0.70;96.00;;;;;;4998079;28;19930;-80
2022/03/08 10:12:33;;;;;;;;;;;-0.70;96.10;;;;;;4999445;28;20288;-80
2022/03/08 10:15:00;;;;;;;;;;;-0.70;96.10;;;;;;4980100;28;19925;-80
2022/03/08 10:17:34;;;;;;;;;;;-0.60;96.20;;;;;;4998783;28;19937;-80
2022/03/08 10:20:01;;;;;;;;;;;-0.60;96.10;;;;;;4997994;28;20278;-80
2022/03/08 10:22:30;;;;;;;;;;;-0.60;96.10;;;;;;5000403;28;20371;-79
2022/03/08 10:25:11;;;;;;;;;;;-0.50;96.10;;;;;;4997111;28;19933;-79
2022/03/08 10:27:38;;;;;;;;;;;-0.50;96.00;;;;;;5003646;28;19929;-79
2022/03/08 10:30:07;;;;;;;;;;;-0.50;95.90;;;;;;4996960;28;19929;-79
2022/03/08 10:32:37;;;;;;;;;;;-0.40;96.00;;;;;;4992817;28;20372;-79
2022/03/08 10:35:04;;;;;;;;;;;-0.40;96.00;;;;;;5000004;28;19925;-78
2022/03/08 10:37:35;;;;;;;;;;;-0.40;96.10;;;;;;4997813;28;19933;-78
2022/03/08 10:40:04;;;;;;;;;;;-0.40;96.10;;;;;;4976938;28;19936;-79
2022/03/08 10:42:33;;;;;;;;;;;-0.30;96.20;;;;;;4988755;28;20021;-79
2022/03/08 10:45:05;;;;;;;;;;;-0.40;96.10;;;;;;5003073;28;19995;-79
2022/03/08 10:47:38;;;;;;;;;;;-0.30;96.10;;;;;;4996676;28;20318;-79
2022/03/08 10:50:06;;;;;;;;;;;-0.30;96.00;;;;;;5004089;28;19992;-79
2022/03/08 10:52:33;;;;;;;;;;;-0.20;96.00;;;;;;4988175;28;20285;-79
2022/03/08 10:55:11;;;;;;;;;;;-0.20;96.00;;;;;;4998831;28;20316;-80
2022/03/08 10:57:40;;;;;;;;;;;-0.20;95.90;;;;;;4996326;28;20404;-79
2022/03/08 11:00:11;;;;;;;;;;;-0.10;96.00;;;;;;5001660;28;20451;-80
2022/03/08 11:02:46;;;;;;;;;;;-0.10;95.90;;;;;;5002734;28;19925;-79
2022/03/08 11:05:14;;;;;;;;;;;-0.10;96.00;;;;;;4991089;28;19925;-80
2022/03/08 11:07:41;;;;;;;;;;;0.00;96.00;;;;;;5008588;28;20021;-80
2022/03/08 11:10:09;;;;;;;;;;;0.00;95.90;;;;;;5005284;28;19925;-79
2022/03/08 11:12:36;;;;;;;;;;;0.00;96.00;;;;;;5004708;28;19925;-79
2022/03/08 11:15:06;;;;;;;;;;;0.00;96.20;;;;;;5008125;28;19983;-80
2022/03/08 11:17:34;;;;;;;;;;;0.00;96.30;;;;;;4991745;28;20742;-79
2022/03/08 11:20:02;;;;;;;;;;;0.00;96.30;;;;;;5009730;28;20392;-80
2022/03/08 11:22:30;;;;;;;;;;;0.00;96.10;;;;;;5003961;28;19925;-79
2022/03/08 11:24:58;;;;;;;;;;;0.10;95.80;;;;;;5009740;28;19933;-79
2022/03/08 11:27:25;;;;;;;;;;;0.20;95.60;;;;;;5007999;28;19939;-79
2022/03/08 11:29:52;;;;;;;;;;;0.20;95.40;;;;;;4986650;28;19925;-79
2022/03/08 11:32:22;;;;;;;;;;;0.20;95.30;;;;;;4986643;28;19925;-79
2022/03/08 11:34:55;;;;;;;;;;;0.30;95.20;;;;;;4986708;28;19983;-80
2022/03/08 11:37:23;;;;;;;;;;;0.30;94.90;;;;;;4983109;28;19980;-79
2022/03/08 11:40:05;;;;;;;;;;;0.40;95.00;;;;;;4974329;28;19975;-79
2022/03/08 11:42:34;;;;;;;;;;;0.40;95.20;;;;;;4994168;28;19932;-79
2022/03/08 11:45:02;;;;;;;;;;;0.40;95.50;;;;;;4983280;28;19977;-79
2022/03/08 11:47:40;;;;;;;;;;;0.40;95.30;;;;;;5003134;28;19925;-79
2022/03/08 11:50:18;;;;;;;;;;;0.40;95.30;;;;;;5007839;28;20439;-79
2022/03/08 11:52:44;;;;;;;;;;;0.50;95.40;;;;;;4992821;28;19987;-80
2022/03/08 11:55:13;;;;;;;;;;;0.50;95.30;;;;;;4982679;28;19995;-80
2022/03/08 11:57:59;;;;;;;;;;;0.60;95.30;;;;;;4987983;28;19933;-80
2022/03/08 12:00:28;;;;;;;;;;;0.60;95.50;;;;;;5002009;28;19925;-80
2022/03/08 12:02:57;;;;;;;;;;;0.60;95.30;;;;;;5004530;28;19980;-79
2022/03/08 12:05:40;;;;;;;;;;;0.70;95.20;;;;;;5000897;28;19937;-80
2022/03/08 12:08:26;;;;;;;;;;;0.70;95.20;;;;;;4988458;28;19957;-80
2022/03/08 12:10:58;;;;;;;;;;;0.70;95.10;;;;;;4987953;28;20356;-80
2022/03/08 12:13:25;;;;;;;;;;;0.80;95.10;;;;;;5000566;28;19940;-79
2022/03/08 12:16:12;;;;;;;;;;;0.80;95.10;;;;;;4986483;28;19925;-79
2022/03/08 12:18:41;;;;;;;;;;;0.90;95.00;;;;;;4982316;28;20370;-79
2022/03/08 12:21:38;;;;;;;;;;;0.90;95.10;;;;;;4996634;28;20007;-80
2022/03/08 12:24:10;;;;;;;;;;;0.90;95.30;;;;;;4921676;28;19930;-80
2022/03/08 12:26:38;;;;;;;;;;;0.90;95.50;;;;;;4967834;28;19941;-80
2022/03/08 12:29:06;;;;;;;;;;;0.90;95.10;;;;;;5001240;28;19956;-79
2022/03/08 12:31:34;;;;;;;;;;;1.00;95.00;;;;;;4999654;28;19925;-80
2022/03/08 12:34:02;;;;;;;;;;;1.00;94.80;;;;;;5004417;28;19925;-79
2022/03/08 12:36:29;;;;;;;;;;;1.10;95.00;;;;;;4989573;28;20009;-80
2022/03/08 12:38:56;;;;;;;;;;;1.10;95.00;;;;;;5003509;28;19969;-81
2022/03/08 12:41:26;;;;;;;;;;;1.10;95.00;;;;;;5007695;28;20051;-80
2022/03/08 12:43:57;;;;;;;;;;;1.10;95.00;;;;;;4985503;28;19933;-80
2022/03/08 12:46:25;;;;;;;;;;;1.20;95.30;;;;;;5009119;28;20288;-80
2022/03/08 12:48:53;;;;;;;;;;;1.20;95.00;;;;;;4981981;28;19983;-81
2022/03/08 12:51:22;;;;;;;;;;;1.30;95.20;;;;;;4981671;28;19933;-81
2022/03/08 12:53:53;;;;;;;;;;;1.30;95.20;;;;;;4994740;28;20396;-81
2022/03/08 12:56:21;;;;;;;;;;;1.40;95.10;;;;;;4993989;28;19933;-81
2022/03/08 12:58:48;;;;;;;;;;;1.40;95.50;;;;;;4983376;28;20207;-80
2022/03/08 13:01:15;;;;;;;;;;;1.40;95.70;;;;;;4982670;28;20293;-82
2022/03/08 13:03:43;;;;;;;;;;;1.50;95.80;;;;;;4985918;28;19976;-80
2022/03/08 13:06:10;;;;;;;;;;;1.50;95.00;;;;;;5000760;28;19925;-81
2022/03/08 13:08:39;;;;;;;;;;;1.60;95.20;;;;;;5005281;28;19932;-80
2022/03/08 13:11:08;;;;;;;;;;;1.60;94.90;;;;;;5002228;28;19951;-80
2022/03/08 13:13:37;;;;;;;;;;;1.60;95.60;;;;;;4988174;28;20385;-81
2022/03/08 13:16:04;;;;;;;;;;;1.60;95.90;;;;;;5002275;28;20336;-81
2022/03/08 13:18:36;;;;;;;;;;;1.70;96.40;;;;;;5002823;28;19930;-81
2022/03/08 13:21:04;;;;;;;;;;;1.70;96.40;;;;;;4997742;28;20589;-80
2022/03/08 13:23:34;;;;;;;;;;;1.70;96.50;;;;;;4999813;28;20865;-81
2022/03/08 13:26:04;;;;;;;;;;;1.80;95.90;;;;;;5003887;28;20713;-82
2022/03/08 13:28:31;;;;;;;;;;;1.90;95.80;;;;;;4985142;28;19933;-81
2022/03/08 13:31:01;;;;;;;;;;;1.90;95.70;;;;;;4982410;28;19925;-81
2022/03/08 15:19:08;;;;;;;;;;;3.60;94.50;;;;;;6042112;22;19987;-81
2022/03/08 16:29:20;;;;;;;;;;;4.00;95.10;;;;;;5795302;23;19957;-81
2022/03/08 17:50:27;;;;;;;;;;;4.00;86.10;;;;;;5835614;23;19932;-80
2022/03/08 17:52:54;;;;;;;;;;;3.90;86.30;;;;;;5047415;28;19909;-80
2022/03/08 17:55:21;;;;;;;;;;;3.90;89.70;;;;;;5034536;28;19953;-80
2022/03/08 17:57:48;;;;;;;;;;;3.90;90.10;;;;;;5030117;28;19973;-80
2022/03/08 18:00:16;;;;;;;;;;;3.90;90.40;;;;;;5036248;28;19996;-80
2022/03/08 18:02:43;;;;;;;;;;;3.90;90.80;;;;;;5037605;28;19967;-80
2022/03/08 18:07:57;;;;;;;;;;;3.90;90.10;;;;;;5727903;22;19921;-80
2022/03/08 18:24:28;;;;;;;;;;;3.80;89.50;;;;;;5441923;22;19917;-81
2022/03/08 18:26:59;;;;;;;;;;;3.90;88.00;;;;;;5723491;23;19917;-81
2022/03/08 18:32:06;;;;;;;;;;;3.90;88.30;;;;;;5086135;22;19911;-79
2022/03/08 18:40:20;;;;;;;;;;;3.80;88.90;;;;;;5113151;23;19916;-81
2022/03/08 18:45:24;;;;;;;;;;;3.70;89.60;;;;;;5887427;23;19921;-80
2022/03/08 18:47:51;;;;;;;;;;;3.70;90.00;;;;;;5328305;23;19909;-82
2022/03/08 18:52:54;;;;;;;;;;;3.70;89.80;;;;;;5455011;23;19914;-80
2022/03/08 18:55:22;;;;;;;;;;;3.70;89.70;;;;;;5378066;23;19913;-80
2022/03/08 18:58:02;;;;;;;;;;;3.60;90.00;;;;;;5064513;28;19921;-80
2022/03/08 19:05:53;;;;;;;;;;;3.60;90.30;;;;;;5086426;22;21400;-80
2022/03/08 19:14:01;;;;;;;;;;;3.50;90.20;;;;;;5533276;23;19909;-81
2022/03/08 19:16:30;;;;;;;;;;;3.40;90.40;;;;;;5083347;23;19945;-81
2022/03/08 19:18:57;;;;;;;;;;;3.40;90.30;;;;;;5036817;28;19948;-81
2022/03/08 19:21:24;;;;;;;;;;;3.40;90.40;;;;;;5162125;23;19913;-81
2022/03/08 19:23:53;;;;;;;;;;;3.40;90.50;;;;;;5056983;28;20012;-81
2022/03/08 19:26:23;;;;;;;;;;;3.30;90.40;;;;;;5564453;23;19920;-81
2022/03/08 19:28:50;;;;;;;;;;;3.30;90.30;;;;;;5058535;28;19909;-81
2022/03/08 19:31:22;;;;;;;;;;;3.30;90.40;;;;;;5043313;28;19971;-81
2022/03/08 19:33:50;;;;;;;;;;;3.30;90.40;;;;;;5045372;28;19929;-81
2022/03/08 19:36:17;;;;;;;;;;;3.30;90.40;;;;;;5021400;28;19940;-80
2022/03/08 19:41:28;;;;;;;;;;;3.20;90.70;;;;;;5767905;23;19935;-80
2022/03/08 19:43:56;;;;;;;;;;;3.20;90.90;;;;;;5438274;23;19916;-81
2022/03/08 19:46:25;;;;;;;;;;;3.20;91.10;;;;;;5057075;28;19931;-81
2022/03/08 19:51:35;;;;;;;;;;;3.20;91.20;;;;;;5160273;23;19939;-82
2022/03/08 19:54:02;;;;;;;;;;;3.20;91.50;;;;;;5041374;28;19909;-81
2022/03/08 20:01:54;;;;;;;;;;;3.20;91.90;;;;;;5208926;23;19952;-79
2022/03/08 20:04:24;;;;;;;;;;;3.10;92.10;;;;;;5044973;28;19940;-80
2022/03/08 20:06:52;;;;;;;;;;;3.10;92.30;;;;;;5052051;28;19937;-80
2022/03/08 20:09:20;;;;;;;;;;;3.10;92.20;;;;;;5055942;28;19977;-80
2022/03/08 20:11:47;;;;;;;;;;;3.10;92.20;;;;;;5051353;28;19940;-80
2022/03/08 20:14:14;;;;;;;;;;;3.10;92.50;;;;;;5057681;28;19976;-80
2022/03/08 20:16:42;;;;;;;;;;;3.00;92.30;;;;;;5059427;28;19909;-80
2022/03/08 20:19:11;;;;;;;;;;;3.00;92.20;;;;;;5164601;23;19913;-80
2022/03/08 20:21:38;;;;;;;;;;;3.00;92.30;;;;;;5068883;28;20035;-80
2022/03/08 20:26:48;;;;;;;;;;;3.00;92.30;;;;;;4622193;26;19910;-79
2022/03/08 20:29:15;;;;;;;;;;;3.00;92.40;;;;;;4999039;28;19952;-80
2022/03/08 20:31:42;;;;;;;;;;;2.90;92.20;;;;;;4987805;28;19945;-80
2022/03/08 20:36:56;;;;;;;;;;;2.90;92.20;;;;;;5359910;23;19925;-80
2022/03/08 20:39:24;;;;;;;;;;;2.90;92.30;;;;;;5057019;28;19940;-80
2022/03/08 20:41:51;;;;;;;;;;;2.90;92.20;;;;;;5061059;28;19913;-81
2022/03/08 20:44:18;;;;;;;;;;;2.90;92.30;;;;;;5040195;28;19926;-80
2022/03/08 20:46:45;;;;;;;;;;;2.90;92.10;;;;;;5036395;28;19948;-82
2022/03/08 20:49:15;;;;;;;;;;;2.90;92.10;;;;;;5599921;23;19936;-81
2022/03/08 20:51:42;;;;;;;;;;;2.80;92.30;;;;;;5041763;28;19909;-81
2022/03/08 20:54:10;;;;;;;;;;;2.80;92.10;;;;;;5057541;28;19964;-80
2022/03/08 20:56:38;;;;;;;;;;;2.80;92.30;;;;;;5058690;28;19913;-81
2022/03/08 20:59:05;;;;;;;;;;;2.80;92.50;;;;;;5053965;28;19921;-80
2022/03/08 21:01:32;;;;;;;;;;;2.80;92.60;;;;;;5055140;28;19909;-81
2022/03/08 21:04:02;;;;;;;;;;;2.80;92.70;;;;;;5055757;28;19940;-80
2022/03/08 21:06:30;;;;;;;;;;;2.80;92.80;;;;;;5057510;28;19909;-80
2022/03/08 21:08:57;;;;;;;;;;;2.70;92.90;;;;;;5055812;28;19933;-80
2022/03/08 21:11:27;;;;;;;;;;;2.70;93.00;;;;;;5047648;28;19929;-81
2022/03/08 21:13:56;;;;;;;;;;;2.80;93.00;;;;;;5052212;28;19913;-80
2022/03/08 21:16:23;;;;;;;;;;;2.70;92.90;;;;;;5083785;23;19929;-80
2022/03/08 21:18:51;;;;;;;;;;;2.70;93.10;;;;;;5035796;28;19913;-80
2022/03/08 21:21:18;;;;;;;;;;;2.70;92.90;;;;;;5037326;28;20163;-80
2022/03/08 21:23:45;;;;;;;;;;;2.70;93.00;;;;;;5029666;28;19914;-80
2022/03/08 21:26:12;;;;;;;;;;;2.70;93.10;;;;;;5014823;28;19925;-80
2022/03/08 21:28:40;;;;;;;;;;;2.70;93.10;;;;;;5035375;28;19941;-80
2022/03/08 21:31:07;;;;;;;;;;;2.70;93.10;;;;;;5032196;28;19948;-80
2022/03/08 21:33:36;;;;;;;;;;;2.60;93.10;;;;;;5029761;28;20025;-81
2022/03/08 21:36:03;;;;;;;;;;;2.60;93.10;;;;;;5035276;28;19933;-80
2022/03/08 21:38:30;;;;;;;;;;;2.60;93.20;;;;;;5036230;28;19981;-80
2022/03/08 21:40:57;;;;;;;;;;;2.60;93.20;;;;;;5036970;28;19985;-81
2022/03/08 21:43:24;;;;;;;;;;;2.60;93.10;;;;;;5030257;28;19932;-79
2022/03/08 21:45:53;;;;;;;;;;;2.60;93.10;;;;;;5030681;28;19921;-80
2022/03/08 21:48:20;;;;;;;;;;;2.60;93.00;;;;;;5030187;28;19929;-81
2022/03/08 21:50:47;;;;;;;;;;;2.50;92.90;;;;;;5028597;28;19921;-80
2022/03/08 21:53:14;;;;;;;;;;;2.60;93.00;;;;;;5005946;28;19932;-81
2022/03/08 21:55:41;;;;;;;;;;;2.50;93.00;;;;;;5002415;28;19949;-80
2022/03/08 21:58:08;;;;;;;;;;;2.50;92.80;;;;;;5016319;28;19925;-81
2022/03/08 22:00:36;;;;;;;;;;;2.50;93.10;;;;;;5018282;28;19933;-80